Flight Track Log - Related Links

Times and Time Zones

All times are in EDT time to prevent confusion due to time zone crossing. See the FDX1482 flight status page for this flight to view local times or setup timezone preferences in your user account.

Time Position Orientation Groundspeed Altitude Reporting Facility
EDT Latitude Longitude Course Direction KTS MPH feet Rate Location/Type
Tue 04:35:58 AM 35.0167 -89.9667 73° East 173 199 1,400  Level KMEM
Tue 04:36:37 AM 34.9833 -89.9500 158° South 200 230 2,400 2,761 Climbing KMEM
Tue 04:37:51 AM 35.0000 -89.8500 78° East 261 300 6,600 3,582 Climbing KMEM
Tue 04:38:51 AM 35.0333 -89.7667 64° Northeast 273 314 10,400 3,743 Climbing KMEM
Tue 04:39:32 AM 35.0578 -89.7053 64° Northeast 286 329 12,900 3,030 Climbing Memphis Center
Tue 04:40:32 AM 35.0864 -89.6161 69° East 345 397 15,500 1,900 Climbing Memphis Center
Tue 04:41:00 AM 35.2100 -89.2435 73° East  Level FlightAware Approximate
Tue 04:41:32 AM 35.1272 -89.4836 69° East 386 444 16,700  Level Memphis Center
Tue 04:42:32 AM 35.1744 -89.3561 66° East 393 452 20,000 2,900 Climbing Memphis Center
Tue 04:43:32 AM 35.2233 -89.2261 65° Northeast 409 471 22,500 2,500 Climbing Memphis Center
Tue 04:44:32 AM 35.2761 -89.0853 65° Northeast 434 499 25,000 2,250 Climbing Memphis Center
Tue 04:45:32 AM 35.3289 -88.9447 65° Northeast 451 519 27,000 2,150 Climbing Memphis Center
Tue 04:46:32 AM 35.3814 -88.7958 67° East 465 535 29,300 2,400 Climbing Memphis Center
Tue 04:47:32 AM 35.4294 -88.6497 68° East 465 535 31,800 2,100 Climbing Memphis Center
Tue 04:48:32 AM 35.4836 -88.5033 66° East 465 535 33,500 275 Climbing Memphis Center
Tue 04:53:42 AM 35.7460 -87.7570 66° East 35,000 141 Climbing FlightAware ADS-B
Tue 04:53:52 AM 35.7540 -87.7350 66° East 35,000  Level FlightAware ADS-B
Tue 04:54:37 AM 35.7920 -87.6260 67° East 35,000  Level FlightAware ADS-B
Tue 04:55:22 AM 35.8300 -87.5150 67° East 35,000  Level FlightAware ADS-B
Tue 04:56:02 AM 35.8630 -87.4200 67° East 35,000  Level FlightAware ADS-B
Tue 04:56:47 AM 35.8990 -87.3150 67° East 35,000  Level FlightAware ADS-B
Tue 04:57:27 AM 35.9310 -87.2210 67° East 35,000  Level FlightAware ADS-B
Tue 04:58:12 AM 35.9670 -87.1140 67° East 35,000  Level FlightAware ADS-B
Tue 04:58:40 AM 35.9902 -87.0454 67° East 35,000  Level FlightAware ADS-B
Tue 04:59:11 AM 36.0137 -86.9758 67° East 441 507 35,000  Level FlightAware ADS-B
Tue 04:59:51 AM 36.0458 -86.8811 67° East 445 512 35,000  Level FlightAware ADS-B
Tue 05:00:31 AM 36.0769 -86.7887 67° East 435 501 35,000  Level FlightAware ADS-B
Tue 05:01:03 AM 36.1013 -86.7161 67° East 437 503 35,000  Level FlightAware ADS-B
Tue 05:01:36 AM 36.1270 -86.6390 68° East 440 506 35,000  Level FlightAware ADS-B
Tue 05:02:07 AM 36.1508 -86.5676 68° East 440 506 35,000  Level FlightAware ADS-B
Tue 05:02:38 AM 36.1742 -86.4972 68° East 428 493 35,000  Level FlightAware ADS-B
Tue 05:03:08 AM 36.1975 -86.4269 68° East 431 496 35,000  Level FlightAware ADS-B
Tue 05:03:48 AM 36.2279 -86.3355 68° East 437 503 35,000  Level FlightAware ADS-B
Tue 05:04:23 AM 36.2549 -86.2542 68° East 432 497 35,000  Level FlightAware ADS-B
Tue 05:04:59 AM 36.2822 -86.1706 68° East 442 509 35,000  Level FlightAware ADS-B
Tue 05:05:29 AM 36.3052 -86.1009 68° East 432 497 35,000  Level FlightAware ADS-B
Tue 05:05:59 AM 36.3283 -86.0297 68° East 444 511 35,000  Level FlightAware ADS-B
Tue 05:07:22 AM 36.3900 -85.8400 68° East 35,000  Level FlightAware ADS-B
Tue 05:07:40 AM 36.4051 -85.7943 68° East 35,000  Level FlightAware ADS-B
Tue 05:08:11 AM 36.4288 -85.7215 68° East 446 513 35,000  Level FlightAware ADS-B
Tue 05:08:41 AM 36.4531 -85.6472 68° East 451 519 35,000  Level FlightAware ADS-B
Tue 05:09:14 AM 36.4787 -85.5675 68° East 453 521 35,000  Level FlightAware ADS-B
Tue 05:09:45 AM 36.5021 -85.4946 68° East 457 526 35,000  Level FlightAware ADS-B
Tue 05:10:15 AM 36.5256 -85.4206 68° East 464 534 35,000  Level FlightAware ADS-B
Tue 05:10:45 AM 36.5490 -85.3478 68° East 438 504 35,000  Level FlightAware ADS-B
Tue 05:11:30 AM 36.5836 -85.2390 68° East 454 522 35,000  Level FlightAware ADS-B
Tue 05:12:02 AM 36.6078 -85.1628 68° East 448 516 35,000  Level FlightAware ADS-B
Tue 05:12:47 AM 36.6420 -85.0550 68° East 35,000  Level FlightAware ADS-B
Tue 05:13:10 AM 36.6607 -84.9966 68° East 452 520 35,000  Level FlightAware ADS-B
Tue 05:13:45 AM 36.6873 -84.9121 69° East 452 520 35,000  Level FlightAware ADS-B
Tue 05:14:27 AM 36.7196 -84.8093 69° East 448 516 35,000  Level FlightAware ADS-B
Tue 05:14:58 AM 36.7428 -84.7346 69° East 442 509 35,000  Level FlightAware ADS-B
Tue 05:15:31 AM 36.7675 -84.6559 69° East 446 513 35,000  Level FlightAware ADS-B
Tue 05:16:07 AM 36.7947 -84.5681 69° East 460 529 35,000  Level FlightAware ADS-B
Tue 05:16:37 AM 36.8176 -84.4946 69° East 452 520 35,000  Level FlightAware ADS-B
Tue 05:17:08 AM 36.8404 -84.4208 69° East 451 519 35,000  Level FlightAware ADS-B
Tue 05:17:41 AM 36.8643 -84.3436 69° East 452 520 35,000  Level FlightAware ADS-B
Tue 05:18:12 AM 36.8869 -84.2703 69° East 429 494 35,000  Level FlightAware ADS-B
Tue 05:18:42 AM 36.9098 -84.1970 69° East 453 521 35,000  Level FlightAware ADS-B
Tue 05:19:12 AM 36.9318 -84.1251 69° East 445 512 35,000  Level FlightAware ADS-B
Tue 05:19:43 AM 36.9541 -84.0518 69° East 432 497 35,000  Level FlightAware ADS-B
Tue 05:20:14 AM 36.9774 -83.9761 69° East 445 512 35,000  Level FlightAware ADS-B
Tue 05:20:48 AM 37.0028 -83.8923 69° East 451 519 35,000  Level FlightAware ADS-B
Tue 05:21:22 AM 37.0277 -83.8104 69° East 451 519 35,000  Level FlightAware ADS-B
Tue 05:21:52 AM 37.0500 -83.7369 69° East 462 532 35,000  Level FlightAware ADS-B
Tue 05:22:24 AM 37.0732 -83.6593 69° East 453 521 35,000  Level FlightAware ADS-B
Tue 05:22:55 AM 37.0962 -83.5828 69° East 456 525 35,000  Level FlightAware ADS-B
Tue 05:23:30 AM 37.1228 -83.4944 69° East 446 513 35,000  Level FlightAware ADS-B
Tue 05:24:00 AM 37.1456 -83.4185 69° East 472 543 35,000  Level FlightAware ADS-B
Tue 05:24:31 AM 37.1683 -83.3425 69° East 471 542 35,000  Level FlightAware ADS-B
Tue 05:25:07 AM 37.1947 -83.2531 70° East 451 519 35,000  Level FlightAware ADS-B
Tue 05:25:38 AM 37.2171 -83.1775 70° East 445 512 35,000  Level FlightAware ADS-B
Tue 05:26:08 AM 37.2394 -83.1021 70° East 461 531 35,000  Level FlightAware ADS-B
Tue 05:26:38 AM 37.2617 -83.0270 70° East 465 535 35,000  Level FlightAware ADS-B
Tue 05:27:19 AM 37.2902 -82.9292 70° East 436 502 35,000  Level FlightAware ADS-B
Tue 05:28:08 AM 37.3257 -82.8081 70° East 446 513 35,000  Level FlightAware ADS-B
Tue 05:28:58 AM 37.3602 -82.6897 70° East 444 511 35,000  Level FlightAware ADS-B
Tue 05:31:55 AM 37.4840 -82.2617 70° East 430 495 35,000  Level FlightAware ADS-B
Tue 05:32:25 AM 37.5048 -82.1897 70° East 436 502 35,000  Level FlightAware ADS-B
Tue 05:32:56 AM 37.5255 -82.1165 70° East 444 511 35,000  Level FlightAware ADS-B
Tue 05:33:27 AM 37.5466 -82.0414 70° East 438 504 35,000  Level FlightAware ADS-B
Tue 05:33:58 AM 37.5683 -81.9651 70° East 451 519 35,000  Level FlightAware ADS-B
Tue 05:34:30 AM 37.5901 -81.8876 70° East 449 517 35,000  Level FlightAware ADS-B
Tue 05:35:00 AM 37.6107 -81.8150 70° East 449 517 35,000  Level FlightAware ADS-B
Tue 05:35:31 AM 37.6316 -81.7402 71° East 440 506 35,000  Level FlightAware ADS-B
Tue 05:36:01 AM 37.6524 -81.6663 70° East 461 531 35,000  Level FlightAware ADS-B
Tue 05:36:32 AM 37.6730 -81.5927 71° East 442 509 35,000  Level FlightAware ADS-B
Tue 05:37:02 AM 37.6931 -81.5203 71° East 427 491 35,000  Level FlightAware ADS-B
Tue 05:37:33 AM 37.7133 -81.4471 71° East 417 480 35,000  Level FlightAware ADS-B
Tue 05:38:04 AM 37.7336 -81.3733 71° East 429 494 35,000  Level FlightAware ADS-B
Tue 05:38:43 AM 37.7598 -81.2787 71° East 440 506 35,000  Level FlightAware ADS-B
Tue 05:39:37 AM 37.7930 -81.1600 70° East 35,000  Level FlightAware ADS-B
Tue 05:40:13 AM 37.8192 -81.0635 71° East 35,000  Level FlightAware ADS-B
Tue 05:40:44 AM 37.8390 -80.9912 71° East 423 487 35,000  Level FlightAware ADS-B
Tue 05:41:42 AM 37.8772 -80.8503 71° East 437 503 35,000  Level FlightAware ADS-B
Tue 05:42:12 AM 37.8972 -80.7768 71° East 444 511 35,000  Level FlightAware ADS-B
Tue 05:43:42 AM 37.9540 -80.5640 71° East 35,000  Level FlightAware ADS-B
Tue 05:44:22 AM 37.9800 -80.4680 71° East 35,000  Level FlightAware ADS-B
Tue 05:45:02 AM 38.0050 -80.3750 71° East 35,000  Level FlightAware ADS-B
Tue 05:45:19 AM 38.0144 -80.3439 71° East 438 504 35,000  Level Washington Center
Tue 05:46:23 AM 38.0558 -80.1936 71° East 438 504 35,000  Level Washington Center
Tue 05:47:19 AM 38.0947 -80.0456 72° East 438 504 35,000  Level Washington Center
Tue 05:48:20 AM 38.1333 -79.9000 71° East 438 504 35,000 -1,205 Level Washington Center
Tue 05:54:07 AM 38.3520 -79.0390 71° East 35,000 -1,250 Level FlightAware ADS-B
Tue 05:55:17 AM 38.3970 -78.8570 72° East 35,000 -1,586 Level FlightAware ADS-B
Tue 05:56:32 AM 38.4490 -78.6490 72° East 35,000 -1,677 Level FlightAware ADS-B
Tue 05:57:47 AM 38.4960 -78.4610 72° East 31,400 -1,787 Descending FlightAware ADS-B
Tue 05:58:22 AM 38.5170 -78.3730 73° East 29,400 -1,710 Descending FlightAware ADS-B
Tue 05:59:07 AM 38.5420 -78.2700 73° East 26,900 -1,652 Descending FlightAware ADS-B
Tue 05:59:42 AM 38.5640 -78.1800 73° East 25,200 -1,576 Descending FlightAware ADS-B
Tue 06:00:32 AM 38.5950 -78.0550 72° East 22,800 -1,527 Descending FlightAware ADS-B
Tue 06:01:07 AM 38.6160 -77.9640 74° East 21,000 -1,452 Descending FlightAware ADS-B
Tue 06:01:52 AM 38.6400 -77.8610 73° East 19,100 -1,386 Descending FlightAware ADS-B
Tue 06:02:37 AM 38.6480 -77.7490 85° East 18,300 -1,324 Descending FlightAware ADS-B
Tue 06:03:17 AM 38.6540 -77.6580 85° East 17,700 -1,338 Descending FlightAware ADS-B
Tue 06:03:32 AM 38.6630 -77.6220 72° East 17,200 -1,362 Descending FlightAware ADS-B
Tue 06:04:17 AM 38.7160 -77.5350 52° Northeast 14,900 -1,349 Descending FlightAware ADS-B
Tue 06:04:52 AM 38.7590 -77.4760 47° Northeast 13,200 -1,235 Descending FlightAware ADS-B
Tue 06:05:37 AM 38.8090 -77.3970 51° Northeast 12,000 -1,144 Descending FlightAware ADS-B
Tue 06:06:22 AM 38.8470 -77.3150 59° Northeast 12,000 -1,110 Level FlightAware ADS-B
Tue 06:07:02 AM 38.8760 -77.2530 59° Northeast 11,500 -1,200 Descending FlightAware ADS-B
Tue 06:07:47 AM 38.9190 -77.1950 46° Northeast 10,300 -1,235 Descending FlightAware ADS-B
Tue 06:08:27 AM 38.9610 -77.1490 40° Northeast 9,900 -1,200 Descending FlightAware ADS-B
Tue 06:08:52 AM 38.9860 -77.1230 39° Northeast 9,300 -1,256 Descending FlightAware ADS-B
Tue 06:09:07 AM 39.0010 -77.1060 41° Northeast 8,600 -1,244 Descending FlightAware ADS-B
Tue 06:09:37 AM 39.0310 -77.0730 41° Northeast 7,400 -1,185 Descending FlightAware ADS-B
Tue 06:10:07 AM 39.0630 -77.0390 40° Northeast 6,200 -1,083 Descending FlightAware ADS-B
Tue 06:10:32 AM 39.0860 -77.0130 41° Northeast 5,300 -964 Descending FlightAware ADS-B
Tue 06:10:57 AM 39.1090 -76.9880 40° Northeast 4,300 -866 Descending FlightAware ADS-B
Tue 06:11:27 AM 39.1370 -76.9570 41° Northeast 3,300 -729 Descending FlightAware ADS-B
Tue 06:11:57 AM 39.1610 -76.9310 40° Northeast 3,000 -576 Descending FlightAware ADS-B
Tue 06:12:02 AM 39.1630 -76.9280 49° Northeast 3,000 -573 Level FlightAware ADS-B
Tue 06:12:32 AM 39.1790 -76.9000 54° Northeast 2,700 -586 Descending FlightAware ADS-B
Tue 06:12:52 AM 39.1850 -76.8810 68° East 2,500 -584 Descending FlightAware ADS-B
Tue 06:13:22 AM 39.1830 -76.8530 95° East 2,100 -582 Descending FlightAware ADS-B
Tue 06:13:32 AM 39.1830 -76.8420 90° East 2,000 -533 Descending FlightAware ADS-B
Tue 06:14:02 AM 39.1810 -76.8130 95° East 1,900 -528 Descending FlightAware ADS-B
Tue 06:14:27 AM 39.1800 -76.7990 95° East 1,700 -632 Descending FlightAware ADS-B
Tue 06:14:57 AM 39.1790 -76.7700 93° East 1,300 -686 Descending FlightAware ADS-B
Tue 06:15:37 AM 39.1833 -76.7333 93° East 120 138 900 -600 Descending Potomac TRACON
Tue 06:17:00 AM 39.1754 -76.6683 139° Southeast  Level Estimated
Tue 06:24:00 AM 39.1754 -76.6683 339° North  Level Estimated
Tue 06:25:00 AM 39.1754 -76.6683 339° North  Level Estimated
Tue 06:26:00 AM 39.1754 -76.6683 339° North  Level Estimated
Tue 06:27:00 AM 39.1754 -76.6683 339° North  Level Estimated

Login

Don't have an account? Register now (free) for customized features, flight alerts, and more!